createdAt,value
2023-06-16T00:00:46.542Z,9.39
2023-06-16T00:01:46.582Z,9.5
2023-06-16T00:02:46.542Z,9.39
2023-06-16T00:04:46.524Z,9.67
2023-06-16T00:05:46.544Z,9.67
2023-06-16T00:07:46.559Z,9.22
2023-06-16T00:08:46.518Z,9.22
2023-06-16T00:09:46.540Z,9.22
2023-06-16T00:10:46.536Z,9.39
2023-06-16T00:11:46.544Z,9.67
2023-06-16T00:13:46.523Z,9.78
2023-06-16T00:14:46.541Z,9.67
2023-06-16T00:16:46.538Z,9.67
2023-06-16T00:17:46.546Z,9.39
2023-06-16T00:18:46.523Z,9.5
2023-06-16T00:19:46.530Z,9.06
2023-06-16T00:20:46.553Z,9.39
2023-06-16T00:21:46.522Z,9.5
2023-06-16T00:22:46.543Z,9.5
2023-06-16T00:23:46.575Z,9.78
2023-06-16T00:25:46.538Z,9.94
2023-06-16T00:26:46.542Z,9.5
2023-06-16T00:27:46.548Z,9.06
2023-06-16T00:28:46.521Z,9.06
2023-06-16T00:29:46.537Z,9.39
2023-06-16T00:30:46.529Z,9.5
2023-06-16T00:31:46.533Z,9.39
2023-06-16T00:32:46.603Z,9.67
2023-06-16T00:33:46.552Z,9.5
2023-06-16T00:35:46.563Z,8.78
2023-06-16T00:36:46.544Z,9.22
2023-06-16T00:38:46.561Z,9.06
2023-06-16T00:39:46.553Z,9.22
2023-06-16T00:41:46.522Z,9.22
2023-06-16T00:42:46.529Z,9.22
2023-06-16T00:43:46.523Z,9.22
2023-06-16T00:44:46.536Z,9.06
2023-06-16T00:45:46.543Z,9.06
2023-06-16T00:46:46.710Z,9.06
2023-06-16T00:47:46.576Z,9.06
2023-06-16T00:49:46.539Z,8.94
2023-06-16T00:50:46.539Z,9.06
2023-06-16T00:51:46.552Z,9.5
2023-06-16T00:53:46.554Z,9.22
2023-06-16T00:54:46.528Z,9.22
2023-06-16T00:55:46.552Z,8.94
2023-06-16T00:57:46.532Z,9.39
2023-06-16T00:58:46.524Z,9.22
2023-06-16T00:59:46.529Z,9.67
2023-06-16T01:01:46.577Z,9.67
2023-06-16T01:02:46.635Z,9.22
2023-06-16T01:03:46.532Z,9.39
2023-06-16T01:05:46.527Z,9.5
2023-06-16T01:06:46.536Z,9.5
2023-06-16T01:07:46.556Z,8.78
2023-06-16T01:08:46.556Z,8.61
2023-06-16T01:09:46.530Z,8.78
2023-06-16T01:10:46.540Z,8.78
2023-06-16T01:11:46.577Z,9.06
2023-06-16T01:13:46.639Z,8.61
2023-06-16T01:15:46.545Z,8.61
2023-06-16T01:16:46.586Z,8.78
2023-06-16T01:18:46.539Z,8.94
2023-06-16T01:19:46.530Z,9.22
2023-06-16T01:20:46.547Z,8.94
2023-06-16T01:22:46.544Z,8.5
2023-06-16T01:23:46.565Z,8.78
2023-06-16T01:24:46.537Z,8.94
2023-06-16T01:25:46.538Z,8.61
2023-06-16T01:26:46.554Z,8.78
2023-06-16T01:27:46.564Z,8.78
2023-06-16T01:28:46.544Z,8.94
2023-06-16T01:29:46.560Z,8.78
2023-06-16T01:31:46.554Z,8.78
2023-06-16T01:33:46.549Z,8.61
2023-06-16T01:35:46.548Z,8.61
2023-06-16T01:36:46.537Z,8.61
2023-06-16T01:37:46.561Z,8.78
2023-06-16T01:38:46.553Z,8.61
2023-06-16T01:39:46.566Z,8.78
2023-06-16T01:41:46.575Z,8.61
2023-06-16T01:42:46.573Z,8.78
2023-06-16T01:43:46.620Z,9.06
2023-06-16T01:45:46.593Z,9.22
2023-06-16T01:46:46.746Z,9.06
2023-06-16T01:47:46.613Z,9.06
2023-06-16T01:48:46.556Z,9.22
2023-06-16T01:50:46.555Z,8.78
2023-06-16T01:52:46.563Z,8.61
2023-06-16T01:54:46.556Z,8.94
2023-06-16T01:55:46.554Z,9.22
2023-06-16T01:57:46.565Z,8.78
2023-06-16T01:58:46.562Z,8.78
2023-06-16T01:59:46.596Z,8.78
2023-06-16T02:01:46.571Z,8.78
2023-06-16T02:02:46.627Z,9.06
2023-06-16T02:03:46.619Z,9.22
2023-06-16T02:04:46.556Z,9.22
2023-06-16T02:05:46.581Z,9.22
2023-06-16T02:07:46.571Z,9.39
2023-06-16T02:08:46.568Z,9.22
2023-06-16T02:10:46.565Z,9.22
2023-06-16T02:11:46.584Z,9.22
2023-06-16T02:13:46.572Z,9.22
2023-06-16T02:14:46.563Z,8.78
2023-06-16T02:15:46.598Z,8.61
2023-06-16T02:16:46.569Z,8.39
2023-06-16T02:17:46.598Z,8.39
2023-06-16T02:18:46.568Z,8.11
2023-06-16T02:20:46.566Z,7.94
2023-06-16T02:21:46.570Z,7.78
2023-06-16T02:23:46.617Z,7.94
2023-06-16T02:24:46.593Z,8.39
2023-06-16T02:25:46.578Z,8.28
2023-06-16T02:26:46.560Z,8.39
2023-06-16T02:27:46.569Z,8.39
2023-06-16T02:28:46.567Z,8.28
2023-06-16T02:29:46.578Z,7.94
2023-06-16T02:30:46.579Z,7.94
2023-06-16T02:31:46.662Z,7.94
2023-06-16T02:33:46.585Z,7.67
2023-06-16T02:35:46.573Z,7.5
2023-06-16T02:36:46.597Z,8.11
2023-06-16T02:38:46.603Z,8.11
2023-06-16T02:40:46.579Z,8.61
2023-06-16T02:42:46.595Z,8.39
2023-06-16T02:43:46.577Z,8.28
2023-06-16T02:44:46.607Z,8.39
2023-06-16T02:45:46.625Z,8.39
2023-06-16T02:46:46.608Z,7.94
2023-06-16T02:47:46.624Z,7.94
2023-06-16T02:49:46.597Z,7.67
2023-06-16T02:51:46.594Z,7.5
2023-06-16T02:52:46.574Z,8.28
2023-06-16T02:53:46.581Z,7.78
2023-06-16T02:55:46.578Z,7.94
2023-06-16T02:56:46.565Z,7.78
2023-06-16T02:57:46.576Z,7.5
2023-06-16T02:58:46.601Z,7.5
2023-06-16T03:00:46.609Z,7.67
2023-06-16T03:02:46.667Z,7.5
2023-06-16T03:03:46.612Z,7.22
2023-06-16T03:05:46.604Z,7.5
2023-06-16T03:06:46.568Z,7.67
2023-06-16T03:08:46.570Z,7.67
2023-06-16T03:09:46.575Z,7.67
2023-06-16T03:10:46.578Z,7.67
2023-06-16T03:12:46.607Z,7.67
2023-06-16T03:13:46.577Z,7.78
2023-06-16T03:14:46.594Z,7.67
2023-06-16T03:16:46.668Z,7.5
2023-06-16T03:18:46.578Z,7.5
2023-06-16T03:19:46.603Z,7.22
2023-06-16T03:20:46.568Z,7.22
2023-06-16T03:21:46.587Z,7.22
2023-06-16T03:23:46.661Z,7.94
2023-06-16T03:25:46.574Z,7.94
2023-06-16T03:27:46.588Z,8.11
2023-06-16T03:28:46.584Z,7.78
2023-06-16T03:29:46.588Z,8.11
2023-06-16T03:31:46.590Z,7.94
2023-06-16T03:32:46.598Z,7.94
2023-06-16T03:33:46.576Z,7.78
2023-06-16T03:34:46.609Z,7.5
2023-06-16T03:35:46.617Z,7.67
2023-06-16T03:36:46.576Z,7.5
2023-06-16T03:37:46.590Z,7.5
2023-06-16T03:38:46.577Z,7.39
2023-06-16T03:39:46.602Z,7.5
2023-06-16T03:41:46.597Z,7.5
2023-06-16T03:42:46.596Z,7.5
2023-06-16T03:43:46.596Z,7.5
2023-06-16T03:45:46.609Z,7.22
2023-06-16T03:46:46.586Z,7.39
2023-06-16T03:48:46.593Z,7.67
2023-06-16T03:49:46.584Z,7.94
2023-06-16T03:50:46.597Z,7.39
2023-06-16T03:51:46.622Z,7.22
2023-06-16T03:53:46.603Z,7.5
2023-06-16T03:54:46.651Z,7.94
2023-06-16T03:55:46.586Z,7.78
2023-06-16T03:56:46.609Z,7.94
2023-06-16T03:58:46.601Z,7.94
2023-06-16T03:59:46.585Z,8.11
2023-06-16T04:00:46.589Z,7.78
2023-06-16T04:01:46.702Z,8.28
2023-06-16T04:03:46.617Z,8.11
2023-06-16T04:04:46.615Z,8.28
2023-06-16T04:05:46.592Z,8.11
2023-06-16T04:06:46.591Z,7.67
2023-06-16T04:07:46.638Z,7.94
2023-06-16T04:08:48.159Z,8.39
2023-06-16T04:09:46.599Z,8.39
2023-06-16T04:10:46.601Z,8.11
2023-06-16T04:11:46.604Z,8.39
2023-06-16T04:12:46.592Z,8.39
2023-06-16T04:13:46.610Z,7.78
2023-06-16T04:14:46.592Z,8.39
2023-06-16T04:15:46.602Z,8.39
2023-06-16T04:16:46.606Z,8.61
2023-06-16T04:18:46.616Z,8.61
2023-06-16T04:19:46.608Z,8.78
2023-06-16T04:20:46.610Z,8.78
2023-06-16T04:21:46.625Z,8.61
2023-06-16T04:23:46.637Z,9.22
2023-06-16T04:25:46.617Z,8.94
2023-06-16T04:26:46.600Z,9.06
2023-06-16T04:27:46.616Z,9.06
2023-06-16T04:29:46.613Z,9.06
2023-06-16T04:30:46.605Z,9.22
2023-06-16T04:31:46.613Z,9.5
2023-06-16T04:32:46.678Z,9.22
2023-06-16T04:33:46.618Z,9.06
2023-06-16T04:35:46.618Z,8.78
2023-06-16T04:36:46.606Z,8.78
2023-06-16T04:37:46.623Z,8.61
2023-06-16T04:38:46.616Z,8.5
2023-06-16T04:39:46.649Z,8.28
2023-06-16T04:40:46.617Z,8.39
2023-06-16T04:41:46.626Z,8.11
2023-06-16T04:42:46.628Z,8.5
2023-06-16T04:43:46.615Z,8.78
2023-06-16T04:44:46.619Z,8.78
2023-06-16T04:45:46.628Z,8.78
2023-06-16T04:46:46.620Z,8.78
2023-06-16T04:47:46.639Z,9.22
2023-06-16T04:48:46.630Z,9.22
2023-06-16T04:49:46.624Z,9.39
2023-06-16T04:50:46.622Z,9.67
2023-06-16T04:51:46.621Z,9.67
2023-06-16T04:52:46.631Z,9.67
2023-06-16T04:53:46.616Z,9.78
2023-06-16T04:54:46.625Z,9.67
2023-06-16T04:55:46.653Z,9.94
2023-06-16T04:57:46.623Z,9.94
2023-06-16T04:58:46.634Z,9.78
2023-06-16T04:59:46.625Z,9.67
2023-06-16T05:00:46.618Z,9.67
2023-06-16T05:01:46.630Z,9.5
2023-06-16T05:03:46.726Z,9.94
2023-06-16T05:04:46.621Z,9.94
2023-06-16T05:05:46.624Z,10.11
2023-06-16T05:06:46.615Z,10.11
2023-06-16T05:07:46.639Z,9.94
2023-06-16T05:08:46.619Z,10.11
2023-06-16T05:09:46.638Z,9.67
2023-06-16T05:10:46.631Z,9.67
2023-06-16T05:11:46.664Z,9.67
2023-06-16T05:12:46.621Z,9.67
2023-06-16T05:13:46.629Z,9.67
2023-06-16T05:14:46.632Z,9.78
2023-06-16T05:15:46.641Z,9.78
2023-06-16T05:16:46.731Z,10.11
2023-06-16T05:17:46.718Z,10.22
2023-06-16T05:18:46.677Z,10.56
2023-06-16T05:20:46.639Z,10.39
2023-06-16T05:22:46.627Z,10.22
2023-06-16T05:23:46.688Z,9.78
2023-06-16T05:25:46.655Z,9.78
2023-06-16T05:26:46.618Z,10.56
2023-06-16T05:27:46.653Z,10.39
2023-06-16T05:28:46.623Z,10.56
2023-06-16T05:29:46.629Z,10.56
2023-06-16T05:31:46.622Z,13.5
2023-06-16T05:32:46.727Z,13.94
2023-06-16T05:33:46.649Z,15.72
2023-06-16T05:35:46.631Z,16.67
2023-06-16T05:36:46.643Z,15.72
2023-06-16T05:38:46.636Z,14.56
2023-06-16T05:39:46.644Z,14.67
2023-06-16T05:41:46.637Z,18.28
2023-06-16T05:42:46.654Z,18.44
2023-06-16T05:43:46.701Z,18.39
2023-06-16T05:45:46.634Z,16.22
2023-06-16T05:46:46.638Z,15.89
2023-06-16T05:48:46.632Z,15.17
2023-06-16T05:49:46.626Z,15.72
2023-06-16T05:50:46.624Z,16.06
2023-06-16T05:51:46.622Z,15.39
2023-06-16T05:52:46.625Z,16.06
2023-06-16T05:54:46.630Z,15.17
2023-06-16T05:55:46.629Z,13.17
2023-06-16T05:56:46.628Z,12.56
2023-06-16T05:57:46.628Z,13.17
2023-06-16T05:58:46.642Z,12.28
2023-06-16T05:59:46.719Z,11.61
2023-06-16T06:00:46.621Z,11.44
2023-06-16T06:01:46.627Z,11.28
2023-06-16T06:02:46.747Z,11.11
2023-06-16T06:03:46.890Z,10.83
2023-06-16T06:04:46.684Z,11
2023-06-16T06:05:46.633Z,10.67
2023-06-16T06:06:46.642Z,10.67
2023-06-16T06:08:46.644Z,10.67
2023-06-16T06:09:46.631Z,10.67
2023-06-16T06:10:46.632Z,10.83
2023-06-16T06:11:46.639Z,10.83
2023-06-16T06:12:46.628Z,11.28
2023-06-16T06:13:46.634Z,11.11
2023-06-16T06:15:46.742Z,10.83
2023-06-16T06:17:46.706Z,11
2023-06-16T06:19:46.640Z,11
2023-06-16T06:20:46.626Z,11.11
2023-06-16T06:21:46.634Z,11.11
2023-06-16T06:22:48.869Z,10.83
2023-06-16T06:23:46.649Z,11.11
2023-06-16T06:24:46.628Z,11
2023-06-16T06:25:46.639Z,11.11
2023-06-16T06:26:46.646Z,11
2023-06-16T06:27:46.637Z,10.67
2023-06-16T06:28:46.636Z,11
2023-06-16T06:30:46.686Z,10.83
2023-06-16T06:31:46.676Z,11
2023-06-16T06:32:46.685Z,11
2023-06-16T06:34:46.642Z,11
2023-06-16T06:35:46.637Z,10.67
2023-06-16T06:36:46.655Z,10.83
2023-06-16T06:38:46.643Z,10.67
2023-06-16T06:39:46.637Z,10.67
2023-06-16T06:40:46.626Z,11
2023-06-16T06:41:46.639Z,11.72
2023-06-16T06:42:46.637Z,11.83
2023-06-16T06:43:46.644Z,11.44
2023-06-16T06:44:46.648Z,11.44
2023-06-16T06:45:46.661Z,11.61
2023-06-16T06:46:46.644Z,11.61
2023-06-16T06:47:46.715Z,11.61
2023-06-16T06:48:46.629Z,11.61
2023-06-16T06:49:46.645Z,11.61
2023-06-16T06:50:46.656Z,11.28
2023-06-16T06:51:46.662Z,11.28
2023-06-16T06:52:46.653Z,11.28
2023-06-16T06:53:46.637Z,11
2023-06-16T06:54:46.656Z,10.56
2023-06-16T06:55:46.663Z,10.67
2023-06-16T06:56:46.647Z,11
2023-06-16T06:57:46.646Z,10.56
2023-06-16T06:58:46.645Z,10.39
2023-06-16T06:59:46.660Z,10.11
2023-06-16T07:00:46.644Z,10.22
2023-06-16T07:02:46.754Z,10.56
2023-06-16T07:03:46.719Z,10.56
2023-06-16T07:05:46.656Z,10.67
2023-06-16T07:06:46.685Z,11
2023-06-16T07:07:46.687Z,10.83
2023-06-16T07:09:46.659Z,11
2023-06-16T07:10:46.652Z,11
2023-06-16T07:11:46.643Z,11.28
2023-06-16T07:12:46.656Z,11.28
2023-06-16T07:13:46.653Z,11.44
2023-06-16T07:14:46.648Z,11.61
2023-06-16T07:15:46.658Z,11.61
2023-06-16T07:16:46.656Z,11.83
2023-06-16T07:17:46.656Z,11.83
2023-06-16T07:18:46.654Z,11.83
2023-06-16T07:19:46.686Z,11.83
2023-06-16T07:21:46.683Z,11.61
2023-06-16T07:22:46.654Z,11.72
2023-06-16T07:23:46.675Z,11.83
2023-06-16T07:25:46.650Z,11.94
2023-06-16T07:26:46.669Z,11.94
2023-06-16T07:28:46.667Z,12.11
2023-06-16T07:30:46.684Z,12.72
2023-06-16T07:32:46.669Z,12.89
2023-06-16T07:34:46.667Z,13.5
2023-06-16T07:35:46.693Z,13.33
2023-06-16T07:37:46.658Z,14.06
2023-06-16T07:38:46.685Z,13.94
2023-06-16T07:40:46.662Z,13.94
2023-06-16T07:42:46.929Z,14.06
2023-06-16T07:43:46.702Z,14.56
2023-06-16T07:45:46.679Z,15
2023-06-16T07:46:46.705Z,15
2023-06-16T07:47:46.699Z,15.22
2023-06-16T07:48:46.670Z,15.39
2023-06-16T07:49:46.676Z,15.56
2023-06-16T07:50:46.672Z,15.56
2023-06-16T07:51:46.688Z,15.72
2023-06-16T07:53:46.695Z,15.17
2023-06-16T07:54:46.683Z,15.39
2023-06-16T07:55:46.686Z,16.39
2023-06-16T07:57:46.668Z,14.56
2023-06-16T07:58:46.692Z,13.94
2023-06-16T07:59:46.672Z,13.94
2023-06-16T08:00:46.695Z,14.67
2023-06-16T08:01:46.716Z,15
2023-06-16T08:02:46.732Z,16.22
2023-06-16T08:04:46.750Z,17.28
2023-06-16T08:05:46.685Z,17.28
2023-06-16T08:07:46.725Z,16.83
2023-06-16T08:09:46.679Z,16.67
2023-06-16T08:11:46.683Z,15.89
2023-06-16T08:12:46.694Z,16.39
2023-06-16T08:13:46.691Z,17.78
2023-06-16T08:14:46.680Z,17.78
2023-06-16T08:15:46.682Z,18.28
2023-06-16T08:16:46.677Z,18.28
2023-06-16T08:17:46.697Z,17.61
2023-06-16T08:18:46.666Z,16.83
2023-06-16T08:20:46.692Z,16.5
2023-06-16T08:21:46.680Z,17.17
2023-06-16T08:23:46.816Z,16.39
2023-06-16T08:25:46.690Z,17
2023-06-16T08:26:46.675Z,17.28
2023-06-16T08:27:46.702Z,17
2023-06-16T08:28:46.675Z,16.22
2023-06-16T08:30:46.675Z,16.06
2023-06-16T08:31:46.689Z,16.67
2023-06-16T08:33:46.698Z,17.61
2023-06-16T08:34:46.697Z,18.28
2023-06-16T08:36:46.745Z,18.44
2023-06-16T08:38:46.675Z,18.28
2023-06-16T08:39:46.713Z,18.44
2023-06-16T08:41:46.679Z,18.28
2023-06-16T08:42:46.690Z,17.78
2023-06-16T08:43:46.684Z,17.78
2023-06-16T08:45:46.690Z,17.78
2023-06-16T08:46:46.704Z,18.11
2023-06-16T08:47:46.732Z,19.28
2023-06-16T08:48:46.690Z,19.72
2023-06-16T08:49:46.691Z,19.94
2023-06-16T08:50:46.697Z,20.06
2023-06-16T08:51:46.688Z,20.06
2023-06-16T08:52:46.707Z,19.72
2023-06-16T08:53:46.683Z,18.78
2023-06-16T08:54:46.676Z,18.56
2023-06-16T08:55:46.709Z,18.56
2023-06-16T08:57:46.684Z,19.39
2023-06-16T08:58:46.696Z,19.72
2023-06-16T08:59:46.693Z,20.22
2023-06-16T09:01:46.694Z,21.17
2023-06-16T09:02:46.724Z,21.17
2023-06-16T09:04:46.693Z,21.5
2023-06-16T09:05:46.691Z,22.78
2023-06-16T09:06:46.698Z,21.89
2023-06-16T09:07:46.904Z,21.39
2023-06-16T09:08:46.690Z,20.72
2023-06-16T09:09:46.692Z,20.11
2023-06-16T09:10:46.688Z,20.22
2023-06-16T09:11:46.749Z,20.33
2023-06-16T09:13:46.692Z,19.56
2023-06-16T09:14:46.700Z,19.06
2023-06-16T09:16:46.732Z,18.17
2023-06-16T09:17:46.711Z,18.28
2023-06-16T09:18:46.688Z,17.83
2023-06-16T09:19:46.704Z,18.17
2023-06-16T09:20:46.684Z,18.17
2023-06-16T09:21:48.667Z,18.61
2023-06-16T09:22:46.698Z,18.94
2023-06-16T09:23:46.715Z,18.61
2023-06-16T09:24:46.694Z,18.94
2023-06-16T09:25:46.685Z,19.28
2023-06-16T09:26:46.700Z,19.78
2023-06-16T09:27:46.774Z,19.56
2023-06-16T09:29:46.691Z,19.06
2023-06-16T09:31:46.687Z,19.94
2023-06-16T09:32:46.750Z,19.78
2023-06-16T09:33:46.692Z,20.33
2023-06-16T09:34:46.724Z,20.83
2023-06-16T09:35:46.706Z,20.83
2023-06-16T09:36:46.702Z,21
2023-06-16T09:37:46.703Z,20.83
2023-06-16T09:38:46.706Z,21
2023-06-16T09:39:46.714Z,21
2023-06-16T09:40:46.699Z,21.22
2023-06-16T09:42:46.688Z,20.33
2023-06-16T09:43:46.825Z,19.78
2023-06-16T09:44:46.698Z,20.11
2023-06-16T09:45:46.698Z,20.56
2023-06-16T09:46:46.704Z,20.56
2023-06-16T09:47:46.728Z,20.83
2023-06-16T09:49:46.709Z,20.33
2023-06-16T09:50:46.693Z,20.72
2023-06-16T09:51:46.704Z,20.72
2023-06-16T09:52:46.698Z,19.94
2023-06-16T09:53:46.695Z,20.33
2023-06-16T09:55:46.703Z,21
2023-06-16T09:56:46.699Z,21.89
2023-06-16T09:58:46.708Z,19.56
2023-06-16T09:59:46.722Z,19.44
2023-06-16T10:01:46.705Z,18.83
2023-06-16T10:02:46.769Z,19
2023-06-16T10:03:46.738Z,19.06
2023-06-16T10:04:46.728Z,18.94
2023-06-16T10:05:46.714Z,19.06
2023-06-16T10:06:46.701Z,18.94
2023-06-16T10:07:46.712Z,18.67
2023-06-16T10:08:46.709Z,18.94
2023-06-16T10:09:59.020Z,19.33
2023-06-16T10:10:46.696Z,18.94
2023-06-16T10:11:46.704Z,18.5
2023-06-16T10:12:46.742Z,18.5
2023-06-16T10:13:46.705Z,18.33
2023-06-16T10:14:46.704Z,18.17
2023-06-16T10:15:46.734Z,18.17
2023-06-16T10:17:46.818Z,19.11
2023-06-16T10:18:46.760Z,18.94
2023-06-16T10:19:46.718Z,18.5
2023-06-16T10:21:46.710Z,19.94
2023-06-16T10:22:46.697Z,20.11
2023-06-16T10:23:46.755Z,20.22
2023-06-16T10:24:46.725Z,20.56
2023-06-16T10:26:46.709Z,21.06
2023-06-16T10:27:46.712Z,21.22
2023-06-16T10:28:46.708Z,21.56
2023-06-16T10:30:46.730Z,21.22
2023-06-16T10:31:46.750Z,20.83
2023-06-16T10:33:46.720Z,20.56
2023-06-16T10:34:46.713Z,21.06
2023-06-16T10:36:46.722Z,20.22
2023-06-16T10:38:46.726Z,20.56
2023-06-16T10:39:46.729Z,21.06
2023-06-16T10:40:46.714Z,21.22
2023-06-16T10:41:46.722Z,20.56
2023-06-16T10:43:46.723Z,20.56
2023-06-16T10:44:46.722Z,20.39
2023-06-16T10:46:46.765Z,21.06
2023-06-16T10:47:46.830Z,21.39
2023-06-16T10:48:46.713Z,22.06
2023-06-16T10:49:46.716Z,22.06
2023-06-16T10:50:46.754Z,21.89
2023-06-16T10:52:46.734Z,22.06
2023-06-16T10:53:46.747Z,22.61
2023-06-16T10:54:46.719Z,22.61
2023-06-16T10:55:46.767Z,22.61
2023-06-16T10:56:47.078Z,22.78
2023-06-16T10:57:46.728Z,23.11
2023-06-16T10:58:48.741Z,22.06
2023-06-16T11:00:46.728Z,21.39
2023-06-16T11:01:46.742Z,21.56
2023-06-16T11:02:46.759Z,22.06
2023-06-16T11:03:46.975Z,22.22
2023-06-16T11:05:46.734Z,23.11
2023-06-16T11:06:55.374Z,23.11
2023-06-16T11:07:46.754Z,22.94
2023-06-16T11:08:46.739Z,22.61
2023-06-16T11:09:46.739Z,22.06
2023-06-16T11:10:46.742Z,21.72
2023-06-16T11:11:46.726Z,21.72
2023-06-16T11:12:46.762Z,21.56
2023-06-16T11:14:46.731Z,20.39
2023-06-16T11:15:46.786Z,20.72
2023-06-16T11:16:46.727Z,20.22
2023-06-16T11:17:46.801Z,19.94
2023-06-16T11:18:46.747Z,19.94
2023-06-16T11:19:46.855Z,20.11
2023-06-16T11:20:46.757Z,20.11
2023-06-16T11:21:46.738Z,19.61
2023-06-16T11:22:46.726Z,19.61
2023-06-16T11:23:46.737Z,18.94
2023-06-16T11:24:46.754Z,19.44
2023-06-16T11:25:46.731Z,19.61
2023-06-16T11:26:46.757Z,19.61
2023-06-16T11:29:46.750Z,19.11
2023-06-16T11:30:46.740Z,18.5
2023-06-16T11:32:46.766Z,17.5
2023-06-16T11:33:46.751Z,16.28
2023-06-16T11:34:46.761Z,15.83
2023-06-16T11:35:46.810Z,15.5
2023-06-16T11:37:46.765Z,13.44
2023-06-16T11:38:46.735Z,13.72
2023-06-16T11:39:46.762Z,14.06
2023-06-16T11:41:57.543Z,14.5
2023-06-16T11:42:46.757Z,14.5
2023-06-16T11:44:46.748Z,14.17
2023-06-16T11:45:46.753Z,13.44
2023-06-16T11:46:46.757Z,12.67
2023-06-16T11:47:46.789Z,12.67
2023-06-16T11:49:46.755Z,13.56
2023-06-16T11:50:46.757Z,13.72
2023-06-16T11:51:46.777Z,13.72
2023-06-16T11:53:46.791Z,13.44
2023-06-16T11:54:46.761Z,12.22
2023-06-16T11:55:46.771Z,11.67
2023-06-16T11:56:46.773Z,11.56
2023-06-16T11:58:46.778Z,11.56
2023-06-16T12:00:46.798Z,11.22
2023-06-16T12:02:46.920Z,11.56
2023-06-16T12:04:03.424Z,11.11
2023-06-16T12:05:46.766Z,12.22
2023-06-16T12:06:46.827Z,12.11
2023-06-16T12:07:46.798Z,12.56
2023-06-16T12:09:46.775Z,12.39
2023-06-16T12:11:46.768Z,13.44
2023-06-16T12:13:46.771Z,13.56
2023-06-16T12:14:46.790Z,13.44
2023-06-16T12:15:46.769Z,13.44
2023-06-16T12:17:46.784Z,12.67
2023-06-16T12:18:46.779Z,12.67
2023-06-16T12:20:46.783Z,13.17
2023-06-16T12:21:46.799Z,13.28
2023-06-16T12:22:46.776Z,14.17
2023-06-16T12:23:46.822Z,14.5
2023-06-16T12:24:46.858Z,15.06
2023-06-16T12:25:46.775Z,15.28
2023-06-16T12:26:46.777Z,16.72
2023-06-16T12:27:46.779Z,16.89
2023-06-16T12:29:46.795Z,17.67
2023-06-16T12:30:46.767Z,17.94
2023-06-16T12:31:46.774Z,17.83
2023-06-16T12:32:46.960Z,18.17
2023-06-16T12:33:46.794Z,18.44
2023-06-16T12:34:46.768Z,18.61
2023-06-16T12:35:46.796Z,18.28
2023-06-16T12:37:46.783Z,18.44
2023-06-16T12:39:46.799Z,18.94
2023-06-16T12:41:46.785Z,18.17
2023-06-16T12:42:46.785Z,18.78
2023-06-16T12:43:46.800Z,19.44
2023-06-16T12:45:46.781Z,18.61
2023-06-16T12:47:46.819Z,18.17
2023-06-16T12:48:46.816Z,17.94
2023-06-16T12:50:46.797Z,17.83
2023-06-16T12:52:46.775Z,17.94
2023-06-16T12:53:46.829Z,18.44
2023-06-16T12:55:46.805Z,17.5
2023-06-16T12:57:46.789Z,17.94
2023-06-16T12:58:46.793Z,17.83
2023-06-16T13:00:46.816Z,17.17
2023-06-16T13:01:46.819Z,17
2023-06-16T13:03:46.808Z,16.56
2023-06-16T13:05:46.813Z,16.06
2023-06-16T13:06:46.776Z,15.89
2023-06-16T13:07:46.780Z,15.61
2023-06-16T13:08:46.788Z,15.61
2023-06-16T13:09:46.800Z,15.17
2023-06-16T13:10:46.790Z,15.28
2023-06-16T13:11:46.813Z,14.61
2023-06-16T13:13:46.810Z,14.11
2023-06-16T13:14:46.795Z,14.28
2023-06-16T13:16:46.803Z,12.22
2023-06-16T13:17:46.846Z,10.94
2023-06-16T13:18:46.784Z,11.83
2023-06-16T13:19:48.940Z,11.83
2023-06-16T13:20:46.794Z,11.83
2023-06-16T13:22:46.781Z,11.67
2023-06-16T13:23:46.833Z,11.67
2023-06-16T13:24:46.794Z,11.94
2023-06-16T13:25:46.792Z,11.83
2023-06-16T13:26:46.804Z,11.83
2023-06-16T13:27:46.812Z,12.22
2023-06-16T13:29:46.795Z,12.11
2023-06-16T13:31:46.806Z,12.11
2023-06-16T13:32:46.880Z,12.22
2023-06-16T13:33:46.800Z,12.56
2023-06-16T13:34:46.795Z,12.83
2023-06-16T13:35:46.841Z,12.94
2023-06-16T13:36:46.794Z,13.11
2023-06-16T13:37:46.800Z,13.11
2023-06-16T13:39:46.824Z,13.39
2023-06-16T13:40:46.795Z,13.56
2023-06-16T13:41:46.797Z,13.56
2023-06-16T13:42:46.809Z,13.83
2023-06-16T13:43:46.829Z,13.67
2023-06-16T13:45:46.813Z,13.83
2023-06-16T13:46:46.807Z,13.67
2023-06-16T13:47:46.817Z,14.11
2023-06-16T13:48:46.799Z,14.28
2023-06-16T13:49:46.815Z,14.28
2023-06-16T13:50:46.811Z,14.28
2023-06-16T13:52:46.803Z,14.28
2023-06-16T13:53:46.816Z,14.61
2023-06-16T13:54:46.807Z,14.11
2023-06-16T13:56:46.801Z,14.78
2023-06-16T13:58:46.873Z,14.78
2023-06-16T14:00:46.813Z,14.78
2023-06-16T14:01:46.812Z,14.78
2023-06-16T14:03:46.800Z,14.28
2023-06-16T14:04:46.805Z,14.28
2023-06-16T14:05:46.809Z,14.28
2023-06-16T14:06:46.809Z,14
2023-06-16T14:07:46.835Z,14.28
2023-06-16T14:08:46.806Z,13.83
2023-06-16T14:09:46.802Z,13.67
2023-06-16T14:10:46.808Z,14
2023-06-16T14:11:46.810Z,13.67
2023-06-16T14:12:46.810Z,13.39
2023-06-16T14:13:46.809Z,13.39
2023-06-16T14:15:46.831Z,13.56
2023-06-16T14:16:46.811Z,13.39
2023-06-16T14:17:46.844Z,13.22
2023-06-16T14:18:46.808Z,13.11
2023-06-16T14:19:46.828Z,13.22
2023-06-16T14:20:46.809Z,13.39
2023-06-16T14:21:46.807Z,13.39
2023-06-16T14:22:46.810Z,13.39
2023-06-16T14:23:46.928Z,13.39
2023-06-16T14:25:47.066Z,13.11
2023-06-16T14:26:46.808Z,12.94
2023-06-16T14:27:46.815Z,12.78
2023-06-16T14:28:46.817Z,12.61
2023-06-16T14:31:46.854Z,12.94
2023-06-16T14:32:46.859Z,12.61
2023-06-16T14:33:46.817Z,12.94
2023-06-16T14:34:46.869Z,13.11
2023-06-16T14:35:46.809Z,13.22
2023-06-16T14:36:46.839Z,12.78
2023-06-16T14:37:46.819Z,13.39
2023-06-16T14:38:46.818Z,13.39
2023-06-16T14:40:46.814Z,13.39
2023-06-16T14:41:46.811Z,13.39
2023-06-16T14:42:46.826Z,13.39
2023-06-16T14:43:46.828Z,13.11
2023-06-16T14:44:46.827Z,13.39
2023-06-16T14:45:46.861Z,13.67
2023-06-16T14:46:46.841Z,13.67
2023-06-16T14:47:46.907Z,13.56
2023-06-16T14:49:46.827Z,14
2023-06-16T14:50:46.840Z,14.61
2023-06-16T14:52:46.839Z,14.11
2023-06-16T14:54:46.831Z,14.28
2023-06-16T14:56:46.862Z,13.83
2023-06-16T14:57:46.817Z,14.28
2023-06-16T14:58:46.830Z,14
2023-06-16T14:59:46.829Z,13.67
2023-06-16T15:00:46.841Z,13.83
2023-06-16T15:01:46.868Z,14.28
2023-06-16T15:03:47.130Z,14.11
2023-06-16T15:05:46.830Z,14.44
2023-06-16T15:07:46.835Z,14.44
2023-06-16T15:08:46.853Z,14.78
2023-06-16T15:10:46.831Z,15.61
2023-06-16T15:11:46.842Z,15.61
2023-06-16T15:12:46.838Z,15.61
2023-06-16T15:13:46.838Z,15.61
2023-06-16T15:14:46.844Z,15.28
2023-06-16T15:15:46.871Z,15.06
2023-06-16T15:16:46.882Z,14.78
2023-06-16T15:17:46.862Z,14.78
2023-06-16T15:18:46.841Z,14.78
2023-06-16T15:19:46.867Z,14.78
2023-06-16T15:21:46.843Z,15.17
2023-06-16T15:22:46.836Z,15.06
2023-06-16T15:23:46.862Z,14.89
2023-06-16T15:25:46.842Z,14.78
2023-06-16T15:27:48.252Z,15.17
2023-06-16T15:28:46.847Z,15.06
2023-06-16T15:30:46.838Z,14.89
2023-06-16T15:31:46.884Z,14.61
2023-06-16T15:32:46.847Z,14.78
2023-06-16T15:33:46.843Z,15.17
2023-06-16T15:34:46.838Z,15.78
2023-06-16T15:35:46.861Z,15.78
2023-06-16T15:37:46.840Z,15.89
2023-06-16T15:38:46.844Z,16.06
2023-06-16T15:40:46.841Z,16.22
2023-06-16T15:42:46.844Z,16.56
2023-06-16T15:43:46.843Z,16.56
2023-06-16T15:45:46.851Z,16.39
2023-06-16T15:46:46.862Z,18.17
2023-06-16T15:47:46.886Z,17.83
2023-06-16T15:49:46.848Z,16.39
2023-06-16T15:50:46.845Z,16.06
2023-06-16T15:51:46.880Z,15.44
2023-06-16T15:53:46.845Z,14.61
2023-06-16T15:54:46.856Z,14.78
2023-06-16T15:56:46.862Z,14.78
2023-06-16T15:57:46.841Z,15.44
2023-06-16T15:58:46.840Z,16.22
2023-06-16T16:00:46.853Z,16.72
2023-06-16T16:02:46.925Z,15.61
2023-06-16T16:03:46.917Z,15.28
2023-06-16T16:05:46.876Z,15.28
2023-06-16T16:06:46.847Z,14.78
2023-06-16T16:07:46.876Z,14.44
2023-06-16T16:09:46.851Z,14.44
2023-06-16T16:10:46.856Z,14.61
2023-06-16T16:11:46.855Z,14.61
2023-06-16T16:12:46.840Z,14.78
2023-06-16T16:13:46.855Z,14.78
2023-06-16T16:14:46.863Z,15.17
2023-06-16T16:16:46.891Z,15.06
2023-06-16T16:17:46.901Z,15.06
2023-06-16T16:18:46.844Z,15.06
2023-06-16T16:19:46.862Z,14.78
2023-06-16T16:20:46.843Z,14.44
2023-06-16T16:21:46.860Z,14.61
2023-06-16T16:22:46.850Z,14.28
2023-06-16T16:23:46.887Z,14.28
2023-06-16T16:25:46.853Z,14.28
2023-06-16T16:27:46.861Z,14.11
2023-06-16T16:28:46.856Z,13.83
2023-06-16T16:29:46.850Z,13.83
2023-06-16T16:30:46.918Z,13.56
2023-06-16T16:31:46.868Z,13.67
2023-06-16T16:32:46.908Z,13.56